createdAt,value
2022-08-23T00:02:26.401Z,72.00
2022-08-23T00:05:07.995Z,72.40
2022-08-23T00:07:39.128Z,72.40
2022-08-23T00:10:11.737Z,72.50
2022-08-23T00:12:39.236Z,72.60
2022-08-23T00:15:08.926Z,72.80
2022-08-23T00:17:36.575Z,73.00
2022-08-23T00:20:06.767Z,73.20
2022-08-23T00:22:33.853Z,73.50
2022-08-23T00:25:00.767Z,73.20
2022-08-23T00:27:28.519Z,73.50
2022-08-23T00:29:57.412Z,73.60
2022-08-23T00:32:28.062Z,73.70
2022-08-23T00:34:55.848Z,73.60
2022-08-23T00:37:23.930Z,73.70
2022-08-23T00:39:50.905Z,73.50
2022-08-23T00:42:57.635Z,73.80
2022-08-23T00:45:49.178Z,74.20
2022-08-23T00:48:16.285Z,74.40
2022-08-23T00:51:08.569Z,74.40
2022-08-23T00:53:42.657Z,74.40
2022-08-23T00:56:12.373Z,74.80
2022-08-23T00:58:40.645Z,75.00
2022-08-23T01:01:07.757Z,75.30
2022-08-23T01:03:39.741Z,75.40
2022-08-23T01:06:33.361Z,75.80
2022-08-23T01:09:05.195Z,76.00
2022-08-23T01:11:33.997Z,76.60
2022-08-23T01:14:12.050Z,76.50
2022-08-23T01:16:45.587Z,76.40
2022-08-23T01:19:23.058Z,76.30
2022-08-23T01:21:59.826Z,76.20
2022-08-23T01:25:05.999Z,76.10
2022-08-23T01:27:14.663Z,76.00
2022-08-23T01:29:42.353Z,76.20
2022-08-23T01:32:09.977Z,76.00
2022-08-23T01:34:37.167Z,76.20
2022-08-23T01:37:13.517Z,76.20
2022-08-23T01:39:40.687Z,76.20
2022-08-23T01:42:08.079Z,76.10
2022-08-23T01:44:35.351Z,76.40
2022-08-23T01:47:02.548Z,76.40
2022-08-23T01:49:30.509Z,76.30
2022-08-23T01:51:57.274Z,76.40
2022-08-23T01:54:24.035Z,76.60
2022-08-23T01:56:50.834Z,76.80
2022-08-23T01:59:17.817Z,76.80
2022-08-23T02:01:44.724Z,76.80
2022-08-23T02:04:11.632Z,76.60
2022-08-23T02:06:38.542Z,76.80
2022-08-23T02:09:06.041Z,76.90
2022-08-23T02:11:45.185Z,77.20
2022-08-23T02:14:18.985Z,77.70
2022-08-23T02:17:03.009Z,77.90
2022-08-23T02:19:33.158Z,77.90
2022-08-23T02:22:00.245Z,77.50
2022-08-23T02:24:27.366Z,77.60
2022-08-23T02:26:57.330Z,77.90
2022-08-23T02:29:26.167Z,77.90
2022-08-23T02:31:53.378Z,77.80
2022-08-23T02:34:22.908Z,77.80
2022-08-23T02:36:52.145Z,77.80
2022-08-23T02:39:19.638Z,77.80
2022-08-23T02:41:47.141Z,77.90
2022-08-23T02:44:14.167Z,77.80
2022-08-23T02:46:42.040Z,78.00
2022-08-23T02:49:09.206Z,78.30
2022-08-23T02:51:36.122Z,78.50
2022-08-23T02:54:03.262Z,78.60
2022-08-23T02:56:33.160Z,79.60
2022-08-23T02:59:00.449Z,78.80
2022-08-23T03:01:30.633Z,78.80
2022-08-23T03:03:58.444Z,78.90
2022-08-23T03:06:26.621Z,79.10
2022-08-23T03:08:56.622Z,79.30
2022-08-23T03:11:25.004Z,80.30
2022-08-23T03:13:53.253Z,80.00
2022-08-23T03:16:20.909Z,80.50
2022-08-23T03:18:48.833Z,80.90
2022-08-23T03:21:16.485Z,80.90
2022-08-23T03:23:43.409Z,80.90
2022-08-23T03:26:12.743Z,81.10
2022-08-23T03:28:41.735Z,81.20
2022-08-23T03:31:09.896Z,81.20
2022-08-23T03:33:38.254Z,81.40
2022-08-23T03:36:08.407Z,81.40
2022-08-23T03:38:36.327Z,81.40
2022-08-23T03:41:03.644Z,81.60
2022-08-23T03:43:30.945Z,81.90
2022-08-23T03:45:57.875Z,82.00
2022-08-23T03:48:25.405Z,82.00
2022-08-23T03:50:54.503Z,81.90
2022-08-23T03:53:23.770Z,81.60
2022-08-23T03:55:53.251Z,81.20
2022-08-23T03:58:21.451Z,81.00
2022-08-23T04:00:48.543Z,80.70
2022-08-23T04:03:15.265Z,80.80
2022-08-23T04:05:42.149Z,81.20
2022-08-23T04:08:10.298Z,81.50
2022-08-23T04:10:39.405Z,82.40
2022-08-23T04:13:08.447Z,81.70
2022-08-23T04:15:35.454Z,81.90
2022-08-23T04:18:02.377Z,82.00
2022-08-23T04:20:29.539Z,82.00
2022-08-23T04:22:57.048Z,82.10
2022-08-23T04:25:33.697Z,82.10
2022-08-23T04:28:02.206Z,82.10
2022-08-23T04:30:29.758Z,82.10
2022-08-23T04:32:56.439Z,82.50
2022-08-23T04:35:23.542Z,82.30
2022-08-23T04:37:50.592Z,82.70
2022-08-23T04:40:36.029Z,82.80
2022-08-23T04:43:02.846Z,82.90
2022-08-23T04:45:29.958Z,82.90
2022-08-23T04:47:56.810Z,83.20
2022-08-23T04:50:23.667Z,83.40
2022-08-23T04:52:50.428Z,83.40
2022-08-23T04:55:17.355Z,83.50
2022-08-23T04:57:44.709Z,83.70
2022-08-23T05:00:13.554Z,83.90
2022-08-23T05:02:40.358Z,83.90
2022-08-23T05:05:08.489Z,84.00
2022-08-23T05:07:42.407Z,84.30
2022-08-23T05:10:12.874Z,84.10
2022-08-23T05:12:40.210Z,84.20
2022-08-23T05:15:09.419Z,84.20
2022-08-23T05:17:36.974Z,84.20
2022-08-23T05:20:06.133Z,84.40
2022-08-23T05:22:38.196Z,84.80
2022-08-23T05:25:05.644Z,85.00
2022-08-23T05:27:32.622Z,85.00
2022-08-23T05:29:59.531Z,85.00
2022-08-23T05:32:27.701Z,85.00
2022-08-23T05:34:57.091Z,85.10
2022-08-23T05:37:23.804Z,85.00
2022-08-23T05:39:50.569Z,85.30
2022-08-23T05:42:17.421Z,85.40
2022-08-23T05:44:45.477Z,85.60
2022-08-23T05:47:15.604Z,85.60
2022-08-23T05:49:43.026Z,85.80
2022-08-23T05:52:12.609Z,85.80
2022-08-23T05:54:39.486Z,85.80
2022-08-23T05:57:06.789Z,86.10
2022-08-23T05:59:34.429Z,86.10
2022-08-23T06:02:01.904Z,86.00
2022-08-23T06:04:28.795Z,86.10
2022-08-23T06:06:58.705Z,86.20
2022-08-23T06:09:26.339Z,86.10
2022-08-23T06:11:53.215Z,86.00
2022-08-23T06:14:20.034Z,85.80
2022-08-23T06:16:50.847Z,85.80
2022-08-23T06:19:20.878Z,85.60
2022-08-23T06:21:48.316Z,85.50
2022-08-23T06:24:15.279Z,85.50
2022-08-23T06:26:45.370Z,85.50
2022-08-23T06:29:15.055Z,85.40
2022-08-23T06:31:49.069Z,85.30
2022-08-23T06:34:26.580Z,85.20
2022-08-23T06:36:58.065Z,84.80
2022-08-23T06:39:26.959Z,84.80
2022-08-23T06:42:00.607Z,85.00
2022-08-23T06:44:28.358Z,84.60
2022-08-23T06:46:56.694Z,85.00
2022-08-23T06:49:24.696Z,83.80
2022-08-23T06:51:55.870Z,83.30
2022-08-23T06:54:26.739Z,82.80
2022-08-23T06:56:54.086Z,82.70
2022-08-23T06:59:21.327Z,82.60
2022-08-23T07:02:01.346Z,82.20
2022-08-23T07:04:34.744Z,81.80
2022-08-23T07:07:03.090Z,81.60
2022-08-23T07:09:31.569Z,81.60
2022-08-23T07:11:59.866Z,81.50
2022-08-23T07:14:27.729Z,81.60
2022-08-23T07:16:57.099Z,81.40
2022-08-23T07:19:29.221Z,81.50
2022-08-23T07:21:57.299Z,81.30
2022-08-23T07:24:28.136Z,81.20
2022-08-23T07:26:57.916Z,81.30
2022-08-23T07:29:24.745Z,81.60
2022-08-23T07:31:55.131Z,81.50
2022-08-23T07:34:23.429Z,81.50
2022-08-23T07:36:54.041Z,81.70
2022-08-23T07:39:22.588Z,81.40
2022-08-23T07:41:49.831Z,81.40
2022-08-23T07:44:18.171Z,81.10
2022-08-23T07:46:46.661Z,81.30
2022-08-23T07:49:14.546Z,81.40
2022-08-23T07:51:45.449Z,80.40
2022-08-23T07:54:12.955Z,80.30
2022-08-23T07:56:40.578Z,80.40
2022-08-23T07:59:08.229Z,80.20
2022-08-23T08:01:35.518Z,79.80
2022-08-23T08:04:04.337Z,79.60
2022-08-23T08:06:40.086Z,79.50
2022-08-23T08:09:07.279Z,78.70
2022-08-23T08:11:35.720Z,78.50
2022-08-23T08:14:06.512Z,78.20
2022-08-23T08:16:36.851Z,77.70
2022-08-23T08:19:07.660Z,77.50
2022-08-23T08:21:35.998Z,77.00
2022-08-23T08:24:07.879Z,77.00
2022-08-23T08:26:34.819Z,77.00
2022-08-23T08:29:01.635Z,76.70
2022-08-23T08:31:28.701Z,76.70
2022-08-23T08:33:55.729Z,76.40
2022-08-23T08:36:33.469Z,76.20
2022-08-23T08:39:00.769Z,76.00
2022-08-23T08:41:40.782Z,75.80
2022-08-23T08:44:16.417Z,75.70
2022-08-23T08:46:50.112Z,75.50
2022-08-23T08:49:24.478Z,75.70
2022-08-23T08:51:59.575Z,75.50
2022-08-23T08:54:29.346Z,75.00
2022-08-23T08:56:59.218Z,73.70
2022-08-23T08:59:38.393Z,73.90
2022-08-23T09:02:07.494Z,72.30
2022-08-23T09:04:54.555Z,71.20
2022-08-23T09:07:37.739Z,71.00
2022-08-23T09:10:25.352Z,69.90
2022-08-23T09:13:04.021Z,69.30
2022-08-23T09:15:39.934Z,67.40
2022-08-23T09:18:15.778Z,68.10
2022-08-23T09:20:52.233Z,66.90
2022-08-23T09:23:26.121Z,67.00
2022-08-23T09:26:03.778Z,66.70
2022-08-23T09:28:34.826Z,66.40
2022-08-23T09:31:02.658Z,66.20
2022-08-23T09:33:38.259Z,66.10
2022-08-23T09:36:06.905Z,65.50
2022-08-23T09:38:34.424Z,65.60
2022-08-23T09:41:01.614Z,64.60
2022-08-23T09:43:42.586Z,64.60
2022-08-23T09:46:09.416Z,64.20
2022-08-23T09:48:39.918Z,63.90
2022-08-23T09:51:35.979Z,63.90
2022-08-23T09:54:07.168Z,62.70
2022-08-23T09:56:45.111Z,61.20
2022-08-23T09:59:52.549Z,61.10
2022-08-23T10:02:37.552Z,60.90
2022-08-23T10:05:18.398Z,60.30
2022-08-23T10:07:56.078Z,60.30
2022-08-23T10:10:23.840Z,59.30
2022-08-23T10:12:51.455Z,58.60
2022-08-23T10:15:18.753Z,58.70
2022-08-23T10:18:10.649Z,58.40
2022-08-23T10:21:06.204Z,57.20
2022-08-23T10:23:38.122Z,56.80
2022-08-23T10:26:08.015Z,56.80
2022-08-23T10:29:24.681Z,56.90
2022-08-23T10:32:00.662Z,56.70
2022-08-23T10:34:45.961Z,56.30
2022-08-23T10:37:30.912Z,56.00
2022-08-23T10:40:09.813Z,54.90
2022-08-23T10:43:01.707Z,53.90
2022-08-23T10:45:38.807Z,53.50
2022-08-23T10:48:28.872Z,52.80
2022-08-23T10:51:06.704Z,53.20
2022-08-23T10:53:36.675Z,53.50
2022-08-23T10:56:04.496Z,53.20
2022-08-23T10:58:41.314Z,52.80
2022-08-23T11:01:12.032Z,53.30
2022-08-23T11:03:47.737Z,52.80
2022-08-23T11:06:36.397Z,52.30
2022-08-23T11:09:15.182Z,52.70
2022-08-23T11:12:06.102Z,52.30
2022-08-23T11:14:41.836Z,51.60
2022-08-23T11:17:24.986Z,51.20
2022-08-23T11:20:00.749Z,51.30
2022-08-23T11:22:33.593Z,50.80
2022-08-23T11:25:02.295Z,50.70
2022-08-23T11:28:13.746Z,50.60
2022-08-23T11:30:46.270Z,50.40
2022-08-23T11:33:19.183Z,49.20
2022-08-23T11:36:13.871Z,48.80
2022-08-23T11:38:43.729Z,48.80
2022-08-23T11:41:26.534Z,48.40
2022-08-23T11:43:56.135Z,47.60
2022-08-23T11:46:25.891Z,47.10
2022-08-23T11:49:28.889Z,47.10
2022-08-23T11:52:14.186Z,47.20
2022-08-23T11:55:00.510Z,47.20
2022-08-23T11:57:54.518Z,47.30
2022-08-23T12:00:59.636Z,46.40
2022-08-23T12:03:51.942Z,46.80
2022-08-23T12:06:57.974Z,47.20
2022-08-23T12:09:24.671Z,47.00
2022-08-23T12:11:57.601Z,46.50
2022-08-23T12:14:51.645Z,46.30
2022-08-23T12:17:19.332Z,46.40
2022-08-23T12:19:51.191Z,46.30
2022-08-23T12:22:31.030Z,46.50
2022-08-23T12:25:03.423Z,46.10
2022-08-23T12:27:34.835Z,46.20
2022-08-23T12:30:22.439Z,45.70
2022-08-23T12:33:07.815Z,45.60
2022-08-23T12:35:46.652Z,45.40
2022-08-23T12:38:19.470Z,45.30
2022-08-23T12:40:54.595Z,44.80
2022-08-23T12:43:30.424Z,44.60
2022-08-23T12:46:01.543Z,44.30
2022-08-23T12:48:32.335Z,44.40
2022-08-23T12:51:07.546Z,44.20
2022-08-23T12:53:44.023Z,43.80
2022-08-23T12:56:31.396Z,43.80
2022-08-23T12:59:05.265Z,43.70
2022-08-23T13:01:35.817Z,43.80
2022-08-23T13:04:14.205Z,44.30
2022-08-23T13:06:47.411Z,43.20
2022-08-23T13:09:22.545Z,43.00
2022-08-23T13:11:49.537Z,42.70
2022-08-23T13:14:44.154Z,42.20
2022-08-23T13:17:20.023Z,42.30
2022-08-23T13:19:48.963Z,42.80
2022-08-23T13:22:22.191Z,42.10
2022-08-23T13:25:24.795Z,42.20
2022-08-23T13:27:44.873Z,41.80
2022-08-23T13:30:11.575Z,41.70
2022-08-23T13:32:47.060Z,42.10
2022-08-23T13:35:31.395Z,41.90
2022-08-23T13:38:06.930Z,42.00
2022-08-23T13:40:43.279Z,42.10
2022-08-23T13:43:20.975Z,41.30
2022-08-23T13:45:54.776Z,41.10
2022-08-23T13:48:35.206Z,41.50
2022-08-23T13:51:40.190Z,41.80
2022-08-23T13:54:12.849Z,42.00
2022-08-23T13:56:48.223Z,42.20
2022-08-23T13:59:26.929Z,41.60
2022-08-23T14:02:01.814Z,41.50
2022-08-23T14:04:28.827Z,41.40
2022-08-23T14:06:55.564Z,41.20
2022-08-23T14:09:22.353Z,41.20
2022-08-23T14:11:55.365Z,41.30
2022-08-23T14:14:22.228Z,41.40
2022-08-23T14:16:49.141Z,41.30
2022-08-23T14:19:17.998Z,40.80
2022-08-23T14:22:02.875Z,40.90
2022-08-23T14:24:30.341Z,41.30
2022-08-23T14:26:57.758Z,41.40
2022-08-23T14:29:27.981Z,40.90
2022-08-23T14:31:55.415Z,40.50
2022-08-23T14:34:22.286Z,40.00
2022-08-23T14:39:38.276Z,40.20
2022-08-23T14:42:05.841Z,40.50
2022-08-23T14:44:35.718Z,40.50
2022-08-23T14:47:03.335Z,40.30
2022-08-23T14:49:30.106Z,40.30
2022-08-23T14:51:56.897Z,40.60
2022-08-23T14:54:25.704Z,40.80
2022-08-23T14:56:53.461Z,41.10
2022-08-23T14:59:20.612Z,41.00
2022-08-23T15:01:49.608Z,41.00
2022-08-23T15:04:23.199Z,41.10
2022-08-23T15:07:16.299Z,40.90
2022-08-23T15:09:38.285Z,40.70
2022-08-23T15:14:52.704Z,41.40
2022-08-23T15:17:19.676Z,41.40
2022-08-23T15:19:46.418Z,41.80
2022-08-23T15:22:21.502Z,41.90
2022-08-23T15:24:49.640Z,41.60
2022-08-23T15:27:24.538Z,41.40
2022-08-23T15:29:51.293Z,41.30
2022-08-23T15:32:22.651Z,41.20
2022-08-23T15:34:50.482Z,41.00
2022-08-23T15:37:20.265Z,41.50
2022-08-23T15:39:47.121Z,41.60
2022-08-23T15:42:20.102Z,41.60
2022-08-23T15:44:48.141Z,41.80
2022-08-23T15:47:27.767Z,41.90
2022-08-23T15:49:55.872Z,41.80
2022-08-23T15:52:22.685Z,41.90
2022-08-23T15:54:49.448Z,42.00
2022-08-23T15:57:21.706Z,42.00
2022-08-23T15:59:48.503Z,42.10
2022-08-23T16:02:15.654Z,41.80
2022-08-23T16:04:42.546Z,41.80
2022-08-23T16:07:12.812Z,42.10
2022-08-23T16:09:40.829Z,42.40
2022-08-23T16:12:08.464Z,42.50
2022-08-23T16:14:36.742Z,42.30
2022-08-23T16:17:04.221Z,42.30
2022-08-23T16:19:31.364Z,42.30
2022-08-23T16:21:59.976Z,42.50
2022-08-23T16:24:27.834Z,42.90
2022-08-23T16:26:55.277Z,42.90
2022-08-23T16:29:22.194Z,43.20
2022-08-23T16:31:49.123Z,43.20
2022-08-23T16:34:18.699Z,43.10
2022-08-23T16:36:56.497Z,43.40
2022-08-23T16:39:25.676Z,43.30
2022-08-23T16:41:52.482Z,43.60
2022-08-23T16:44:19.929Z,43.80
2022-08-23T16:46:46.869Z,44.20
2022-08-23T16:49:16.247Z,44.50
2022-08-23T16:51:43.307Z,44.50
2022-08-23T16:54:10.566Z,44.40
2022-08-23T16:56:39.198Z,44.70
2022-08-23T16:59:08.029Z,44.60
2022-08-23T17:01:51.297Z,44.80
2022-08-23T17:04:19.583Z,44.80
2022-08-23T17:06:46.691Z,45.00
2022-08-23T17:09:14.727Z,45.10
2022-08-23T17:11:43.790Z,45.20
2022-08-23T17:14:12.538Z,45.40
2022-08-23T17:16:41.632Z,45.70
2022-08-23T17:19:08.680Z,46.00
2022-08-23T17:21:35.523Z,46.00
2022-08-23T17:24:02.422Z,46.10
2022-08-23T17:26:29.258Z,46.50
2022-08-23T17:28:56.630Z,46.60
2022-08-23T17:31:24.758Z,46.90
2022-08-23T17:33:51.515Z,47.00
2022-08-23T17:36:28.490Z,47.10
2022-08-23T17:38:57.059Z,47.30
2022-08-23T17:41:27.254Z,47.50
2022-08-23T17:43:54.707Z,47.70
2022-08-23T17:46:21.777Z,47.60
2022-08-23T17:48:48.596Z,47.60
2022-08-23T17:51:15.398Z,47.90
2022-08-23T17:53:42.480Z,48.40
2022-08-23T17:56:12.244Z,48.30
2022-08-23T17:58:39.679Z,48.40
2022-08-23T18:01:06.826Z,49.10
2022-08-23T18:03:33.707Z,49.20
2022-08-23T18:06:01.204Z,49.50
2022-08-23T18:08:43.950Z,49.60
2022-08-23T18:11:11.093Z,50.10
2022-08-23T18:13:37.913Z,50.10
2022-08-23T18:16:05.314Z,50.10
2022-08-23T18:18:32.385Z,50.20
2022-08-23T18:21:03.727Z,50.10
2022-08-23T18:23:30.454Z,50.10
2022-08-23T18:25:57.232Z,50.40
2022-08-23T18:28:24.107Z,50.70
2022-08-23T18:30:54.893Z,50.70
2022-08-23T18:33:25.280Z,50.80
2022-08-23T18:35:58.302Z,51.00
2022-08-23T18:38:25.203Z,51.50
2022-08-23T18:40:52.244Z,52.00
2022-08-23T18:43:22.406Z,52.60
2022-08-23T18:45:54.093Z,52.40
2022-08-23T18:48:22.294Z,52.60
2022-08-23T18:50:49.776Z,53.20
2022-08-23T18:53:18.829Z,53.00
2022-08-23T18:55:46.300Z,52.90
2022-08-23T18:58:13.168Z,53.20
2022-08-23T19:00:41.086Z,53.50
2022-08-23T19:03:08.332Z,54.10
2022-08-23T19:05:41.883Z,54.30
2022-08-23T19:08:10.527Z,54.50
2022-08-23T19:10:37.957Z,54.40
2022-08-23T19:13:05.047Z,54.20
2022-08-23T19:15:34.341Z,54.20
2022-08-23T19:18:01.724Z,54.60
2022-08-23T19:20:29.166Z,54.70
2022-08-23T19:22:57.402Z,54.90
2022-08-23T19:25:25.213Z,55.00
2022-08-23T19:27:52.327Z,55.30
2022-08-23T19:30:19.145Z,55.20
2022-08-23T19:32:46.901Z,55.60
2022-08-23T19:35:14.468Z,55.40
2022-08-23T19:37:41.448Z,55.50
2022-08-23T19:40:08.908Z,55.30
2022-08-23T19:42:37.737Z,55.40
2022-08-23T19:45:06.296Z,55.40
2022-08-23T19:47:33.781Z,55.70
2022-08-23T19:50:00.742Z,55.70
2022-08-23T19:52:27.554Z,55.90
2022-08-23T19:54:57.927Z,56.00
2022-08-23T19:57:29.863Z,55.90
2022-08-23T20:00:01.316Z,56.20
2022-08-23T20:02:28.777Z,56.60
2022-08-23T20:04:55.763Z,56.80
2022-08-23T20:07:22.557Z,57.10
2022-08-23T20:09:49.384Z,57.30
2022-08-23T20:12:17.343Z,57.60
2022-08-23T20:14:44.740Z,57.00
2022-08-23T20:17:11.566Z,57.00
2022-08-23T20:19:38.488Z,57.00
2022-08-23T20:22:23.757Z,56.80
2022-08-23T20:24:52.899Z,56.70
2022-08-23T20:27:27.796Z,56.60
2022-08-23T20:29:59.028Z,57.00
2022-08-23T20:32:26.556Z,57.00
2022-08-23T20:34:53.522Z,57.10
2022-08-23T20:37:20.324Z,57.60
2022-08-23T20:39:47.132Z,57.40
2022-08-23T20:42:13.979Z,58.20
2022-08-23T20:44:40.770Z,57.40
2022-08-23T20:47:07.609Z,57.80
2022-08-23T20:49:34.491Z,58.00
2022-08-23T20:52:01.310Z,57.80
2022-08-23T20:54:28.146Z,58.30
2022-08-23T20:56:54.946Z,58.10
2022-08-23T20:59:22.106Z,58.80
2022-08-23T21:01:49.795Z,58.90
2022-08-23T21:04:17.114Z,59.10
2022-08-23T21:06:48.481Z,59.20
2022-08-23T21:09:19.360Z,59.30
2022-08-23T21:11:48.215Z,59.40
2022-08-23T21:14:15.933Z,59.60
2022-08-23T21:16:44.164Z,59.70
2022-08-23T21:19:10.937Z,59.80
2022-08-23T21:21:39.573Z,59.90
2022-08-23T21:24:07.882Z,60.20
2022-08-23T21:26:35.544Z,60.20
2022-08-23T21:29:03.044Z,60.70
2022-08-23T21:31:31.474Z,60.80
2022-08-23T21:34:00.221Z,61.00
2022-08-23T21:36:27.460Z,61.30
2022-08-23T21:38:54.288Z,61.50
2022-08-23T21:41:38.008Z,61.70
2022-08-23T21:44:08.345Z,61.90
2022-08-23T21:46:35.766Z,62.00
2022-08-23T21:49:03.510Z,62.10
2022-08-23T21:51:30.302Z,62.50
2022-08-23T21:53:57.817Z,62.50
2022-08-23T21:56:26.473Z,62.70
2022-08-23T21:58:57.324Z,63.00
2022-08-23T22:01:24.144Z,63.20
2022-08-23T22:03:56.192Z,63.40
2022-08-23T22:06:24.111Z,63.50
2022-08-23T22:08:50.900Z,63.40
2022-08-23T22:11:18.219Z,63.90
2022-08-23T22:13:45.379Z,64.00
2022-08-23T22:16:12.490Z,64.20
2022-08-23T22:18:39.379Z,64.20
2022-08-23T22:21:06.966Z,64.20
2022-08-23T22:23:36.367Z,64.50
2022-08-23T22:26:06.470Z,65.00
2022-08-23T22:28:33.898Z,64.90
2022-08-23T22:31:02.462Z,65.00
2022-08-23T22:33:29.875Z,65.20
2022-08-23T22:36:08.413Z,65.50
2022-08-23T22:38:35.265Z,65.60
2022-08-23T22:41:02.118Z,65.70
2022-08-23T22:43:29.346Z,65.80
2022-08-23T22:46:00.737Z,65.90
2022-08-23T22:48:29.870Z,66.00
2022-08-23T22:51:08.345Z,66.20
2022-08-23T22:53:37.877Z,66.30
2022-08-23T22:56:05.873Z,66.40
2022-08-23T22:58:33.138Z,66.40
2022-08-23T23:01:00.677Z,66.50
2022-08-23T23:03:31.742Z,66.60
2022-08-23T23:05:58.719Z,66.80
2022-08-23T23:08:27.450Z,66.90
2022-08-23T23:10:59.824Z,67.10
2022-08-23T23:13:29.654Z,67.20
2022-08-23T23:15:58.106Z,67.40
2022-08-23T23:18:26.800Z,67.50
2022-08-23T23:20:58.490Z,67.50
2022-08-23T23:23:26.836Z,67.70
2022-08-23T23:25:54.018Z,67.90
2022-08-23T23:28:21.871Z,67.90
2022-08-23T23:30:51.289Z,68.00
2022-08-23T23:33:19.421Z,68.30
2022-08-23T23:35:47.354Z,68.70
2022-08-23T23:38:15.178Z,68.70
2022-08-23T23:40:42.255Z,68.80
2022-08-23T23:43:12.885Z,69.20
2022-08-23T23:45:41.243Z,69.20
2022-08-23T23:48:08.895Z,69.30
2022-08-23T23:50:41.563Z,69.50
2022-08-23T23:53:11.985Z,69.70
2022-08-23T23:55:38.914Z,69.70
2022-08-23T23:58:05.938Z,69.80
